createdAt,value
2023-12-01T00:02:18.797Z,96754.53
2023-12-01T00:04:45.354Z,96767.88
2023-12-01T00:07:11.867Z,96771.63
2023-12-01T00:09:38.362Z,96771.06
2023-12-01T00:12:05.313Z,96759.31
2023-12-01T00:14:31.744Z,96764.94
2023-12-01T00:16:58.712Z,96752.09
2023-12-01T00:19:25.325Z,96748.06
2023-12-01T00:21:52.002Z,96752.63
2023-12-01T00:24:18.495Z,96752.09
2023-12-01T00:26:46.729Z,96760.91
2023-12-01T00:29:13.395Z,96760.91
2023-12-01T00:31:39.853Z,96745.94
2023-12-01T00:34:06.352Z,96754.75
2023-12-01T00:36:33.999Z,96763.88
2023-12-01T00:39:01.203Z,96751.84
2023-12-01T00:41:27.678Z,96772.13
2023-12-01T00:43:54.270Z,96771.06
2023-12-01T00:46:20.886Z,96760.63
2023-12-01T00:48:47.324Z,96757.19
2023-12-01T00:51:18.606Z,96758.22
2023-12-01T00:53:45.312Z,96763.59
2023-12-01T00:56:12.984Z,96755.53
2023-12-01T00:58:39.774Z,96762.50
2023-12-01T01:01:07.607Z,96760.63
2023-12-01T01:03:36.023Z,96758.50
2023-12-01T01:06:03.700Z,96757.16
2023-12-01T01:08:31.223Z,96754.50
2023-12-01T01:10:58.073Z,96751.03
2023-12-01T01:13:27.580Z,96759.31
2023-12-01T01:15:54.156Z,96774.84
2023-12-01T01:18:21.759Z,96778.59
2023-12-01T01:20:48.838Z,96786.06
2023-12-01T01:23:15.473Z,96787.66
2023-12-01T01:25:41.893Z,96786.56
2023-12-01T01:28:09.276Z,96799.97
2023-12-01T01:30:37.093Z,96799.16
2023-12-01T01:33:03.807Z,96803.72
2023-12-01T01:35:31.642Z,96814.94
2023-12-01T01:37:58.248Z,96817.59
2023-12-01T01:40:25.087Z,96821.91
2023-12-01T01:42:51.605Z,96828.59
2023-12-01T01:45:18.090Z,96813.88
2023-12-01T01:47:44.767Z,96814.16
2023-12-01T01:50:11.370Z,96812.22
2023-12-01T01:52:40.679Z,96800.72
2023-12-01T01:55:08.322Z,96803.69
2023-12-01T01:57:39.510Z,96823.22
2023-12-01T02:00:08.934Z,96828.28
2023-12-01T02:02:36.971Z,96818.66
2023-12-01T02:05:06.030Z,96804.75
2023-12-01T02:07:32.463Z,96824.81
2023-12-01T02:09:58.973Z,96824.03
2023-12-01T02:12:25.480Z,96817.06
2023-12-01T02:14:52.053Z,96827.50
2023-12-01T02:17:18.857Z,96820.22
2023-12-01T02:19:45.387Z,96829.91
2023-12-01T02:22:11.874Z,96839.53
2023-12-01T02:24:38.428Z,96838.47
2023-12-01T02:27:05.212Z,96829.94
2023-12-01T02:29:31.650Z,96835.81
2023-12-01T02:31:58.119Z,96862.50
2023-12-01T02:34:24.611Z,96864.63
2023-12-01T02:36:51.079Z,96848.06
2023-12-01T02:39:17.533Z,96853.97
2023-12-01T02:41:45.064Z,96847.78
2023-12-01T02:44:11.544Z,96844.91
2023-12-01T02:46:38.255Z,96849.69
2023-12-01T02:49:04.831Z,96840.88
2023-12-01T02:51:31.388Z,96841.41
2023-12-01T02:53:57.816Z,96842.41
2023-12-01T02:56:24.269Z,96841.84
2023-12-01T02:58:50.746Z,96838.69
2023-12-01T03:01:17.389Z,96838.72
2023-12-01T03:03:44.447Z,96833.13
2023-12-01T03:06:11.267Z,96831.81
2023-12-01T03:08:37.796Z,96832.06
2023-12-01T03:11:07.529Z,96830.75
2023-12-01T03:13:34.362Z,96827.22
2023-12-01T03:16:01.926Z,96821.63
2023-12-01T03:18:28.668Z,96818.16
2023-12-01T03:20:55.130Z,96826.69
2023-12-01T03:23:21.679Z,96821.88
2023-12-01T03:25:48.434Z,96829.88
2023-12-01T03:28:15.982Z,96832.84
2023-12-01T03:30:42.744Z,96838.72
2023-12-01T03:33:09.251Z,96839.00
2023-12-01T03:35:35.790Z,96848.63
2023-12-01T03:38:02.309Z,96848.03
2023-12-01T03:40:28.937Z,96847.25
2023-12-01T03:42:56.194Z,96854.44
2023-12-01T03:45:23.007Z,96848.88
2023-12-01T03:47:51.856Z,96848.38
2023-12-01T03:50:22.525Z,96843.53
2023-12-01T03:52:51.364Z,96848.03
2023-12-01T03:55:18.423Z,96851.22
2023-12-01T03:57:46.162Z,96858.72
2023-12-01T04:00:15.539Z,96846.47
2023-12-01T04:02:46.626Z,96853.16
2023-12-01T04:05:24.136Z,96853.69
2023-12-01T04:07:57.029Z,96853.69
2023-12-01T04:10:28.814Z,96852.63
2023-12-01T04:12:56.389Z,96852.09
2023-12-01T04:15:26.611Z,96855.00
2023-12-01T04:17:53.971Z,96859.34
2023-12-01T04:20:28.985Z,96866.75
2023-12-01T04:23:00.069Z,96870.53
2023-12-01T04:25:27.424Z,96867.84
2023-12-01T04:27:54.666Z,96856.13
2023-12-01T04:30:22.351Z,96853.97
2023-12-01T04:32:55.534Z,96850.25
2023-12-01T04:35:25.063Z,96849.69
2023-12-01T04:37:52.217Z,96849.09
2023-12-01T04:40:18.950Z,96841.09
2023-12-01T04:42:46.940Z,96849.13
2023-12-01T04:45:15.154Z,96841.69
2023-12-01T04:47:45.865Z,96839.59
2023-12-01T04:50:15.237Z,96836.41
2023-12-01T04:52:47.168Z,96836.16
2023-12-01T04:55:15.719Z,96857.56
2023-12-01T04:57:43.532Z,96860.25
2023-12-01T05:00:24.037Z,96867.75
2023-12-01T05:02:53.026Z,96860.13
2023-12-01T05:05:21.733Z,96857.53
2023-12-01T05:07:51.356Z,96853.84
2023-12-01T05:10:18.744Z,96852.00
2023-12-01T05:12:47.182Z,96857.16
2023-12-01T05:15:16.845Z,96860.31
2023-12-01T05:17:50.732Z,96848.81
2023-12-01T05:20:19.042Z,96854.47
2023-12-01T05:22:50.544Z,96857.69
2023-12-01T05:25:18.787Z,96862.25
2023-12-01T05:27:50.315Z,96875.88
2023-12-01T05:30:24.693Z,96871.25
2023-12-01T05:32:53.191Z,96875.53
2023-12-01T05:35:20.460Z,96880.13
2023-12-01T05:37:52.916Z,96890.28
2023-12-01T05:40:26.109Z,96905.00
2023-12-01T05:42:55.417Z,96911.16
2023-12-01T05:45:25.376Z,96907.16
2023-12-01T05:47:56.125Z,96922.31
2023-12-01T05:50:23.467Z,96913.81
2023-12-01T05:52:52.649Z,96920.81
2023-12-01T05:55:24.777Z,96920.25
2023-12-01T05:57:53.441Z,96912.81
2023-12-01T06:00:22.487Z,96906.88
2023-12-01T06:02:50.518Z,96898.88
2023-12-01T06:05:19.062Z,96909.28
2023-12-01T06:07:50.981Z,96912.94
2023-12-01T06:10:18.729Z,96914.91
2023-12-01T06:12:46.056Z,96924.78
2023-12-01T06:15:14.218Z,96921.84
2023-12-01T06:17:45.170Z,96923.44
2023-12-01T06:20:19.751Z,96919.47
2023-12-01T06:22:48.661Z,96915.44
2023-12-01T06:25:16.125Z,96911.16
2023-12-01T06:27:43.192Z,96918.66
2023-12-01T06:30:13.047Z,96918.72
2023-12-01T06:32:40.703Z,96907.47
2023-12-01T06:35:10.079Z,96899.16
2023-12-01T06:37:36.569Z,96905.91
2023-12-01T06:40:12.632Z,96901.91
2023-12-01T06:42:43.789Z,96907.19
2023-12-01T06:45:14.354Z,96904.31
2023-12-01T06:47:43.591Z,96918.50
2023-12-01T06:50:11.041Z,96925.84
2023-12-01T06:52:38.911Z,96930.47
2023-12-01T06:55:08.815Z,96929.66
2023-12-01T06:57:41.370Z,96919.19
2023-12-01T07:00:22.911Z,96929.66
2023-12-01T07:02:50.135Z,96928.41
2023-12-01T07:05:21.128Z,96938.25
2023-12-01T07:07:49.027Z,96939.03
2023-12-01T07:10:16.924Z,96932.81
2023-12-01T07:12:43.607Z,96935.16
2023-12-01T07:15:12.649Z,96925.50
2023-12-01T07:17:40.088Z,96930.41
2023-12-01T07:20:15.565Z,96933.06
2023-12-01T07:22:44.101Z,96934.19
2023-12-01T07:25:24.990Z,96929.59
2023-12-01T07:27:58.305Z,96918.22
2023-12-01T07:30:25.807Z,96924.44
2023-12-01T07:32:53.939Z,96922.94
2023-12-01T07:35:21.099Z,96928.00
2023-12-01T07:37:48.765Z,96930.25
2023-12-01T07:40:23.155Z,96927.53
2023-12-01T07:42:53.125Z,96927.09
2023-12-01T07:45:20.654Z,96915.97
2023-12-01T07:47:49.502Z,96918.94
2023-12-01T07:50:17.532Z,96927.97
2023-12-01T07:52:45.379Z,96930.25
2023-12-01T07:55:12.386Z,96937.22
2023-12-01T07:57:39.997Z,96927.91
2023-12-01T08:00:15.973Z,96934.34
2023-12-01T08:02:55.046Z,96943.28
2023-12-01T08:05:22.736Z,96938.78
2023-12-01T08:07:55.871Z,96938.28
2023-12-01T08:10:25.090Z,96951.34
2023-12-01T08:12:52.629Z,96951.19
2023-12-01T08:15:19.240Z,96935.03
2023-12-01T08:17:46.917Z,96944.63
2023-12-01T08:20:15.826Z,96952.69
2023-12-01T08:22:44.614Z,96960.16
2023-12-01T08:25:12.182Z,96958.31
2023-12-01T08:27:38.865Z,96956.88
2023-12-01T08:30:06.518Z,96966.53
2023-12-01T08:32:33.717Z,96970.22
2023-12-01T08:35:00.846Z,96975.00
2023-12-01T08:37:27.345Z,96983.13
2023-12-01T08:39:54.138Z,96989.03
2023-12-01T08:42:20.672Z,96992.81
2023-12-01T08:44:47.375Z,96989.03
2023-12-01T08:47:15.215Z,96992.78
2023-12-01T08:49:42.122Z,96988.72
2023-12-01T08:52:09.096Z,96988.47
2023-12-01T08:54:36.310Z,96982.34
2023-12-01T08:57:03.039Z,96984.13
2023-12-01T08:59:29.482Z,96978.97
2023-12-01T09:01:56.215Z,96972.06
2023-12-01T09:04:22.815Z,96963.00
2023-12-01T09:06:49.808Z,96972.31
2023-12-01T09:09:16.361Z,96978.13
2023-12-01T09:11:42.873Z,96978.34
2023-12-01T09:14:09.301Z,96977.41
2023-12-01T09:16:35.793Z,96968.06
2023-12-01T09:19:04.158Z,96949.78
2023-12-01T09:21:31.691Z,96943.88
2023-12-01T09:23:58.277Z,96952.66
2023-12-01T09:26:25.185Z,96940.41
2023-12-01T09:28:52.246Z,96928.75
2023-12-01T09:31:18.961Z,96936.19
2023-12-01T09:33:46.636Z,96955.38
2023-12-01T09:36:13.876Z,96945.47
2023-12-01T09:38:40.493Z,96951.34
2023-12-01T09:41:07.454Z,96946.78
2023-12-01T09:43:34.048Z,96941.97
2023-12-01T09:46:02.399Z,96939.34
2023-12-01T09:48:35.231Z,96948.94
2023-12-01T09:51:02.248Z,96945.25
2023-12-01T09:53:29.025Z,96938.28
2023-12-01T09:55:55.542Z,96937.22
2023-12-01T09:58:22.693Z,96931.34
2023-12-01T10:00:49.253Z,96916.47
2023-12-01T10:03:15.885Z,96919.13
2023-12-01T10:05:44.482Z,96918.94
2023-12-01T10:08:12.712Z,96914.09
2023-12-01T10:10:40.094Z,96919.66
2023-12-01T10:13:08.690Z,96920.13
2023-12-01T10:15:40.031Z,96926.00
2023-12-01T10:18:26.568Z,96919.09
2023-12-01T10:21:06.156Z,96933.56
2023-12-01T10:23:34.753Z,96941.03
2023-12-01T10:26:06.055Z,96926.03
2023-12-01T10:28:44.020Z,96935.09
2023-12-01T10:31:11.400Z,96926.63
2023-12-01T10:33:38.438Z,96929.28
2023-12-01T10:36:09.396Z,96920.69
2023-12-01T10:38:39.907Z,96927.16
2023-12-01T10:41:07.931Z,96924.47
2023-12-01T10:43:35.209Z,96910.53
2023-12-01T10:46:06.750Z,96907.91
2023-12-01T10:48:35.201Z,96916.94
2023-12-01T10:51:04.677Z,96909.47
2023-12-01T10:53:31.383Z,96913.50
2023-12-01T10:56:02.628Z,96921.81
2023-12-01T10:58:32.690Z,96913.81
2023-12-01T11:00:59.178Z,96912.75
2023-12-01T11:03:31.435Z,96913.81
2023-12-01T11:06:04.531Z,96905.25
2023-12-01T11:08:36.890Z,96904.97
2023-12-01T11:11:08.861Z,96908.47
2023-12-01T11:13:50.633Z,96900.22
2023-12-01T11:16:17.998Z,96912.00
2023-12-01T11:18:45.587Z,96911.94
2023-12-01T11:21:12.134Z,96925.88
2023-12-01T11:23:38.714Z,96918.59
2023-12-01T11:26:09.675Z,96922.31
2023-12-01T11:28:42.569Z,96919.63
2023-12-01T11:31:34.260Z,96915.94
2023-12-01T11:34:01.595Z,96914.59
2023-12-01T11:36:35.610Z,96910.81
2023-12-01T11:39:17.229Z,96919.09
2023-12-01T11:41:45.276Z,96912.09
2023-12-01T11:44:25.505Z,96909.97
2023-12-01T11:46:57.955Z,96903.78
2023-12-01T11:49:32.805Z,96903.63
2023-12-01T11:52:00.772Z,96911.69
2023-12-01T11:54:27.888Z,96922.38
2023-12-01T11:56:59.000Z,96934.13
2023-12-01T11:59:25.920Z,96936.03
2023-12-01T12:01:57.862Z,96928.53
2023-12-01T12:04:25.138Z,96928.22
2023-12-01T12:06:52.838Z,96931.38
2023-12-01T12:09:20.560Z,96923.66
2023-12-01T12:11:54.953Z,96923.88
2023-12-01T12:14:26.468Z,96929.28
2023-12-01T12:16:53.256Z,96935.75
2023-12-01T12:19:20.558Z,96929.78
2023-12-01T12:21:48.462Z,96935.38
2023-12-01T12:24:15.402Z,96934.66
2023-12-01T12:26:42.274Z,96923.97
2023-12-01T12:29:09.442Z,96922.94
2023-12-01T12:31:37.925Z,96919.19
2023-12-01T12:34:09.563Z,96913.97
2023-12-01T12:36:39.920Z,96918.22
2023-12-01T12:39:17.871Z,96922.00
2023-12-01T12:41:51.720Z,96909.44
2023-12-01T12:44:18.461Z,96907.22
2023-12-01T12:46:59.093Z,96911.81
2023-12-01T12:49:25.618Z,96913.59
2023-12-01T12:51:52.163Z,96914.66
2023-12-01T12:54:18.704Z,96920.06
2023-12-01T12:56:45.203Z,96916.94
2023-12-01T12:59:11.731Z,96920.94
2023-12-01T13:01:39.339Z,96919.88
2023-12-01T13:04:05.892Z,96926.53
2023-12-01T13:06:32.448Z,96931.00
2023-12-01T13:09:02.850Z,96936.94
2023-12-01T13:11:30.277Z,96936.34
2023-12-01T13:13:56.784Z,96924.38
2023-12-01T13:16:23.328Z,96924.44
2023-12-01T13:18:50.006Z,96925.13
2023-12-01T13:21:17.625Z,96924.78
2023-12-01T13:23:44.283Z,96924.31
2023-12-01T13:26:10.952Z,96906.63
2023-12-01T13:28:37.431Z,96911.19
2023-12-01T13:31:04.336Z,96920.00
2023-12-01T13:33:31.633Z,96933.44
2023-12-01T13:35:58.348Z,96933.88
2023-12-01T13:38:25.672Z,96936.41
2023-12-01T13:40:52.346Z,96941.38
2023-12-01T13:43:18.842Z,96941.94
2023-12-01T13:45:45.692Z,96945.59
2023-12-01T13:48:12.297Z,96948.84
2023-12-01T13:50:38.814Z,96945.06
2023-12-01T13:53:05.538Z,96937.28
2023-12-01T13:55:32.041Z,96934.00
2023-12-01T13:57:58.865Z,96927.41
2023-12-01T14:00:25.503Z,96924.13
2023-12-01T14:02:52.947Z,96928.41
2023-12-01T14:05:19.604Z,96924.13
2023-12-01T14:07:48.290Z,96927.16
2023-12-01T14:10:15.166Z,96928.09
2023-12-01T14:12:43.108Z,96924.09
2023-12-01T14:15:10.323Z,96931.06
2023-12-01T14:17:37.487Z,96928.91
2023-12-01T14:20:04.889Z,96943.19
2023-12-01T14:22:31.477Z,96930.72
2023-12-01T14:24:58.026Z,96935.78
2023-12-01T14:27:24.536Z,96942.25
2023-12-01T14:29:51.044Z,96942.25
2023-12-01T14:32:21.576Z,96931.38
2023-12-01T14:34:51.130Z,96937.44
2023-12-01T14:37:19.107Z,96952.41
2023-12-01T14:39:46.782Z,96950.72
2023-12-01T14:42:13.370Z,96960.50
2023-12-01T14:44:40.954Z,96965.59
2023-12-01T14:47:08.609Z,96961.69
2023-12-01T14:49:35.469Z,96942.38
2023-12-01T14:52:02.098Z,96937.56
2023-12-01T14:54:28.639Z,96938.66
2023-12-01T14:56:55.206Z,96929.59
2023-12-01T14:59:21.774Z,96927.88
2023-12-01T15:01:50.784Z,96925.84
2023-12-01T15:04:18.079Z,96926.50
2023-12-01T15:06:45.072Z,96932.09
2023-12-01T15:09:15.474Z,96925.19
2023-12-01T15:11:44.431Z,96927.31
2023-12-01T15:14:11.045Z,96913.81
2023-12-01T15:16:37.534Z,96911.91
2023-12-01T15:19:04.124Z,96932.03
2023-12-01T15:21:30.560Z,96934.75
2023-12-01T15:23:57.049Z,96918.81
2023-12-01T15:26:23.822Z,96917.88
2023-12-01T15:28:50.333Z,96913.81
2023-12-01T15:31:16.959Z,96906.63
2023-12-01T15:33:43.609Z,96905.25
2023-12-01T15:36:10.740Z,96904.84
2023-12-01T15:38:39.059Z,96901.25
2023-12-01T15:41:06.099Z,96898.78
2023-12-01T15:43:32.698Z,96896.88
2023-12-01T15:45:59.364Z,96899.16
2023-12-01T15:48:26.043Z,96897.88
2023-12-01T15:50:52.539Z,96904.91
2023-12-01T15:53:19.012Z,96908.38
2023-12-01T15:55:45.446Z,96900.84
2023-12-01T15:58:11.950Z,96906.81
2023-12-01T16:00:38.489Z,96907.44
2023-12-01T16:03:07.065Z,96912.31
2023-12-01T16:05:33.650Z,96920.69
2023-12-01T16:08:00.213Z,96933.97
2023-12-01T16:10:26.721Z,96937.72
2023-12-01T16:12:53.204Z,96926.47
2023-12-01T16:15:19.689Z,96922.03
2023-12-01T16:17:46.363Z,96922.84
2023-12-01T16:20:13.079Z,96918.47
2023-12-01T16:22:39.658Z,96913.91
2023-12-01T16:25:09.197Z,96907.56
2023-12-01T16:27:35.984Z,96917.81
2023-12-01T16:30:03.176Z,96924.81
2023-12-01T16:32:29.718Z,96913.94
2023-12-01T16:34:56.742Z,96925.81
2023-12-01T16:37:23.279Z,96930.00
2023-12-01T16:39:49.752Z,96936.38
2023-12-01T16:42:16.235Z,96938.81
2023-12-01T16:44:43.349Z,96947.75
2023-12-01T16:47:09.833Z,96954.94
2023-12-01T16:49:36.464Z,96940.47
2023-12-01T16:52:03.116Z,96945.19
2023-12-01T16:54:29.647Z,96932.41
2023-12-01T16:56:56.110Z,96942.13
2023-12-01T16:59:22.609Z,96954.75
2023-12-01T17:01:49.090Z,96957.91
2023-12-01T17:04:15.668Z,96958.25
2023-12-01T17:06:42.204Z,96956.41
2023-12-01T17:09:09.138Z,96958.38
2023-12-01T17:11:35.765Z,96959.56
2023-12-01T17:14:02.268Z,96963.41
2023-12-01T17:16:28.756Z,96962.59
2023-12-01T17:18:55.330Z,96962.03
2023-12-01T17:21:21.945Z,96952.38
2023-12-01T17:23:48.541Z,96957.63
2023-12-01T17:26:15.124Z,96957.31
2023-12-01T17:28:41.608Z,96955.63
2023-12-01T17:31:08.340Z,96950.81
2023-12-01T17:33:35.038Z,96959.88
2023-12-01T17:36:01.730Z,96952.28
2023-12-01T17:38:28.230Z,96963.41
2023-12-01T17:40:54.642Z,96958.56
2023-12-01T17:43:21.061Z,96958.69
2023-12-01T17:45:47.496Z,96955.47
2023-12-01T17:48:15.425Z,96963.63
2023-12-01T17:50:42.131Z,96961.66
2023-12-01T17:53:08.742Z,96952.69
2023-12-01T17:55:35.290Z,96948.25
2023-12-01T17:58:01.928Z,96946.91
2023-12-01T18:00:28.712Z,96954.09
2023-12-01T18:02:55.220Z,96958.97
2023-12-01T18:05:21.754Z,96951.31
2023-12-01T18:07:51.660Z,96951.81
2023-12-01T18:10:18.239Z,96942.50
2023-12-01T18:12:44.741Z,96938.97
2023-12-01T18:15:11.293Z,96943.44
2023-12-01T18:17:38.884Z,96954.59
2023-12-01T18:20:06.323Z,96948.19
2023-12-01T18:22:33.321Z,96949.06
2023-12-01T18:24:59.734Z,96949.41
2023-12-01T18:27:26.628Z,96958.13
2023-12-01T18:29:53.766Z,96963.81
2023-12-01T18:32:20.267Z,96966.28
2023-12-01T18:34:46.999Z,96969.09
2023-12-01T18:37:13.576Z,96980.41
2023-12-01T18:39:40.224Z,96969.50
2023-12-01T18:42:06.972Z,96967.13
2023-12-01T18:44:33.774Z,96968.38
2023-12-01T18:47:01.138Z,96955.47
2023-12-01T18:49:27.697Z,96965.13
2023-12-01T18:51:54.865Z,96966.69
2023-12-01T18:54:21.466Z,96969.22
2023-12-01T18:56:48.146Z,96965.69
2023-12-01T18:59:14.884Z,96968.94
2023-12-01T19:01:41.600Z,96968.66
2023-12-01T19:04:08.476Z,96965.19
2023-12-01T19:06:35.020Z,96978.25
2023-12-01T19:09:01.991Z,96974.97
2023-12-01T19:11:28.463Z,96967.56
2023-12-01T19:13:54.945Z,96981.25
2023-12-01T19:16:21.405Z,96982.41
2023-12-01T19:18:48.100Z,96978.69
2023-12-01T19:21:14.778Z,96976.63
2023-12-01T19:23:41.762Z,96981.69
2023-12-01T19:26:08.307Z,96990.69
2023-12-01T19:28:35.041Z,96986.53
2023-12-01T19:31:01.554Z,96995.47
2023-12-01T19:33:28.626Z,96994.84
2023-12-01T19:35:55.640Z,96999.88
2023-12-01T19:38:22.133Z,97002.50
2023-12-01T19:40:49.026Z,97000.25
2023-12-01T19:43:15.476Z,96988.09
2023-12-01T19:45:41.919Z,96983.44
2023-12-01T19:48:08.405Z,96987.56
2023-12-01T19:50:37.194Z,96992.03
2023-12-01T19:53:03.746Z,96988.13
2023-12-01T19:55:30.343Z,96995.25
2023-12-01T19:57:56.935Z,97002.50
2023-12-01T20:00:23.944Z,97000.38
2023-12-01T20:02:50.578Z,97007.34
2023-12-01T20:05:17.167Z,97016.88
2023-12-01T20:07:46.111Z,96999.59
2023-12-01T20:10:13.066Z,96991.06
2023-12-01T20:12:39.511Z,96983.09
2023-12-01T20:15:06.643Z,96992.47
2023-12-01T20:17:33.169Z,96986.16
2023-12-01T20:19:59.720Z,96999.28
2023-12-01T20:22:26.232Z,96996.13
2023-12-01T20:24:52.768Z,96989.31
2023-12-01T20:27:19.803Z,96994.72
2023-12-01T20:29:47.356Z,96998.13
2023-12-01T20:32:14.055Z,96987.03
2023-12-01T20:34:42.935Z,96980.50
2023-12-01T20:37:09.432Z,96982.72
2023-12-01T20:39:35.976Z,96988.28
2023-12-01T20:42:02.585Z,96993.25
2023-12-01T20:44:29.407Z,96985.88
2023-12-01T20:46:55.904Z,96989.31
2023-12-01T20:49:22.492Z,96996.25
2023-12-01T20:51:50.116Z,96991.72
2023-12-01T20:54:16.777Z,96982.88
2023-12-01T20:56:43.656Z,96980.88
2023-12-01T20:59:10.907Z,96988.13
2023-12-01T21:01:37.856Z,96975.50
2023-12-01T21:04:04.590Z,96974.88
2023-12-01T21:06:31.265Z,96976.91
2023-12-01T21:08:57.840Z,96983.19
2023-12-01T21:11:24.431Z,96984.16
2023-12-01T21:13:50.955Z,96989.91
2023-12-01T21:16:17.453Z,96980.19
2023-12-01T21:18:44.037Z,96985.09
2023-12-01T21:21:14.075Z,96976.03
2023-12-01T21:23:40.825Z,96967.03
2023-12-01T21:26:07.822Z,96960.22
2023-12-01T21:28:34.344Z,96968.09
2023-12-01T21:31:01.295Z,96975.78
2023-12-01T21:33:28.103Z,96976.19
2023-12-01T21:35:54.688Z,96979.94
2023-12-01T21:38:21.274Z,96970.38
2023-12-01T21:40:50.641Z,96972.13
2023-12-01T21:43:17.671Z,96972.03
2023-12-01T21:45:44.299Z,96970.03
2023-12-01T21:48:11.131Z,96971.38
2023-12-01T21:50:37.960Z,96981.13
2023-12-01T21:53:05.545Z,96997.53
2023-12-01T21:55:32.020Z,97014.09
2023-12-01T21:57:58.521Z,97012.53
2023-12-01T22:00:25.139Z,97007.47
2023-12-01T22:02:56.434Z,97006.03
2023-12-01T22:05:22.967Z,97009.19
2023-12-01T22:07:49.479Z,97011.31
2023-12-01T22:10:15.937Z,97019.44
2023-12-01T22:12:43.376Z,97017.06
2023-12-01T22:15:10.801Z,97028.97
2023-12-01T22:17:38.468Z,97036.97
2023-12-01T22:20:05.295Z,97046.75
2023-12-01T22:22:31.721Z,97031.44
2023-12-01T22:24:58.225Z,97020.97
2023-12-01T22:27:24.744Z,97022.28
2023-12-01T22:29:51.258Z,97027.00
2023-12-01T22:32:17.798Z,97025.63
2023-12-01T22:34:44.358Z,97023.84
2023-12-01T22:37:10.901Z,97002.75
2023-12-01T22:39:37.414Z,97008.28
2023-12-01T22:42:04.111Z,97002.03
2023-12-01T22:44:31.864Z,97016.34
2023-12-01T22:47:01.689Z,97009.38
2023-12-01T22:49:28.285Z,97029.63
2023-12-01T22:51:54.876Z,97026.66
2023-12-01T22:54:21.382Z,97022.94
2023-12-01T22:56:48.081Z,97026.22
2023-12-01T22:59:14.726Z,97026.63
2023-12-01T23:01:41.264Z,97036.47
2023-12-01T23:04:08.088Z,97031.69
2023-12-01T23:06:34.830Z,97035.19
2023-12-01T23:09:01.475Z,97028.78
2023-12-01T23:11:28.010Z,97025.03
2023-12-01T23:13:54.584Z,97022.94
2023-12-01T23:16:21.221Z,97031.34
2023-12-01T23:18:47.891Z,97029.03
2023-12-01T23:21:14.725Z,97011.03
2023-12-01T23:23:41.200Z,96999.59
2023-12-01T23:26:08.270Z,97015.78
2023-12-01T23:28:34.927Z,97014.19
2023-12-01T23:31:01.396Z,97004.13
2023-12-01T23:33:27.984Z,97001.38
2023-12-01T23:35:54.591Z,97012.41
2023-12-01T23:38:21.135Z,97013.41
2023-12-01T23:40:47.725Z,97013.78
2023-12-01T23:43:14.250Z,97007.78
2023-12-01T23:45:40.795Z,97023.59
2023-12-01T23:48:10.468Z,97015.84
2023-12-01T23:50:37.976Z,97014.31
2023-12-01T23:53:04.534Z,97007.94
2023-12-01T23:55:31.021Z,97010.53
2023-12-01T23:57:58.494Z,97012.81
